Time;durP1;ratioP1;P1;durP2;ratioP2;P2;SDS_P1;SDS_P2;PMS_P1;PMS_P2;Temp;Humidity;BMP_temperature;BMP_pressure;BME280_temperature;BME280_humidity;BME280_pressure;Samples;Min_cycle;Max_cycle;Signal;HPM_P1;HPM_P2
2022/10/16 04:03:00;;;;;;;4.57;0.22;;;15.00;99.90;;;;;;5112484;23;87846;-76
2022/10/16 04:05:26;;;;;;;1.50;0.28;;;15.00;99.80;;;;;;4908053;28;85535;-75
2022/10/16 04:07:52;;;;;;;2.20;0.15;;;15.00;99.90;;;;;;4909413;28;87094;-76
2022/10/16 04:10:18;;;;;;;2.17;0.30;;;15.00;99.70;;;;;;4915987;28;87084;-76
2022/10/16 04:12:44;;;;;;;5.68;0.30;;;15.00;99.50;;;;;;4911995;28;87237;-76
2022/10/16 04:15:10;;;;;;;1.90;0.20;;;15.00;99.80;;;;;;4918870;28;87075;-75
2022/10/16 04:17:36;;;;;;;3.05;0.22;;;15.00;99.60;;;;;;4920028;28;87195;-74
2022/10/16 04:20:02;;;;;;;0.70;0.13;;;15.00;99.30;;;;;;4916671;28;87679;-74
2022/10/16 04:22:28;;;;;;;1.90;0.30;;;15.00;98.80;;;;;;4920558;28;87011;-76
2022/10/16 04:24:54;;;;;;;1.00;0.30;;;15.10;98.30;;;;;;4920161;28;87409;-75
2022/10/16 04:27:19;;;;;;;2.40;0.20;;;15.10;98.30;;;;;;4916647;28;87268;-74
2022/10/16 04:29:45;;;;;;;2.70;0.20;;;15.20;97.60;;;;;;4910479;28;86913;-75
2022/10/16 04:32:11;;;;;;;0.80;0.20;;;15.10;98.00;;;;;;4914907;28;86258;-73
2022/10/16 04:34:38;;;;;;;1.73;0.30;;;15.10;99.30;;;;;;4923753;28;86272;-74
2022/10/16 04:37:04;;;;;;;2.45;0.60;;;15.00;99.90;;;;;;4910965;28;87691;-76
2022/10/16 04:39:30;;;;;;;3.95;0.45;;;14.90;99.90;;;;;;4912323;28;88059;-75
2022/10/16 04:41:56;;;;;;;5.90;0.90;;;14.90;99.90;;;;;;4917411;28;87847;-76
2022/10/16 04:44:22;;;;;;;9.85;0.60;;;14.70;99.90;;;;;;4919001;28;86529;-75
2022/10/16 04:46:51;;;;;;;4.63;0.45;;;14.60;99.90;;;;;;4916065;28;87055;-76
2022/10/16 04:49:16;;;;;;;3.75;0.65;;;14.60;99.90;;;;;;4909369;28;86896;-74
2022/10/16 04:51:42;;;;;;;4.03;0.70;;;14.60;99.90;;;;;;4919490;28;86997;-74
2022/10/16 04:54:09;;;;;;;3.40;0.70;;;14.60;99.90;;;;;;4913028;28;85787;-74
2022/10/16 04:56:42;;;;;;;2.83;0.50;;;14.60;99.90;;;;;;4915039;28;87664;-74
2022/10/16 04:59:09;;;;;;;5.60;0.65;;;14.40;99.90;;;;;;4907067;28;87341;-75
2022/10/16 05:01:34;;;;;;;4.15;1.20;;;14.50;99.90;;;;;;4909607;28;87198;-75
2022/10/16 05:04:01;;;;;;;5.38;0.50;;;14.50;99.90;;;;;;4915223;28;86312;-75
2022/10/16 05:06:27;;;;;;;4.25;1.00;;;14.20;99.90;;;;;;4916524;28;86847;-75
2022/10/16 05:08:52;;;;;;;2.90;0.60;;;14.20;99.90;;;;;;4916924;28;86939;-75
2022/10/16 05:11:18;;;;;;;1.63;0.40;;;14.20;99.90;;;;;;4909253;28;86382;-75
2022/10/16 05:13:43;;;;;;;2.75;0.20;;;14.30;99.90;;;;;;4908075;28;87148;-75
2022/10/16 05:16:09;;;;;;;2.42;0.50;;;14.40;99.90;;;;;;4919634;28;86449;-74
2022/10/16 05:18:35;;;;;;;1.85;0.20;;;14.40;99.90;;;;;;4909968;28;86132;-75
2022/10/16 05:21:00;;;;;;;2.65;0.60;;;14.30;99.90;;;;;;4914562;28;86693;-73
2022/10/16 05:23:26;;;;;;;1.33;0.30;;;14.40;99.90;;;;;;4914646;28;86372;-76
2022/10/16 05:25:54;;;;;;;5.00;0.60;;;14.50;99.90;;;;;;4920892;28;89122;-78
2022/10/16 05:28:20;;;;;;;1.30;0.30;;;14.50;99.90;;;;;;4914867;28;87344;-76
2022/10/16 05:30:45;;;;;;;1.30;0.50;;;14.40;99.90;;;;;;4914663;28;86459;-77
2022/10/16 05:33:11;;;;;;;1.92;0.32;;;14.50;99.90;;;;;;4915621;28;88068;-76
2022/10/16 05:35:37;;;;;;;2.95;0.22;;;14.40;99.90;;;;;;4909172;28;87062;-77
2022/10/16 05:38:03;;;;;;;2.03;0.40;;;14.30;99.90;;;;;;4911787;28;87609;-76
2022/10/16 05:40:28;;;;;;;1.58;0.20;;;14.30;99.90;;;;;;4907877;28;86940;-76
2022/10/16 05:42:57;;;;;;;3.50;0.20;;;14.40;99.90;;;;;;4908699;28;87325;-76
2022/10/16 05:45:23;;;;;;;2.78;0.25;;;14.50;99.90;;;;;;4911329;28;87820;-75
2022/10/16 05:47:48;;;;;;;5.07;0.57;;;14.40;99.90;;;;;;4910770;28;88087;-76
2022/10/16 05:50:14;;;;;;;3.92;0.30;;;14.20;99.90;;;;;;4906533;28;87609;-76
2022/10/16 05:52:40;;;;;;;1.85;0.40;;;14.10;99.90;;;;;;4914468;28;86328;-75
2022/10/16 05:55:06;;;;;;;6.38;0.45;;;14.20;99.90;;;;;;4913177;28;86896;-77
2022/10/16 05:57:31;;;;;;;2.10;0.20;;;14.10;99.90;;;;;;4909200;28;88802;-75
2022/10/16 05:59:57;;;;;;;1.75;0.25;;;14.20;99.90;;;;;;4909382;28;88459;-78
2022/10/16 06:02:23;;;;;;;2.15;0.20;;;14.20;99.90;;;;;;4914260;28;88938;-81
2022/10/16 06:04:48;;;;;;;1.00;0.20;;;14.20;99.90;;;;;;4910745;28;86871;-78
2022/10/16 06:07:14;;;;;;;3.65;0.40;;;14.30;99.90;;;;;;4908244;28;86095;-79
2022/10/16 06:09:40;;;;;;;1.05;0.20;;;14.50;99.90;;;;;;4907351;28;86331;-85
2022/10/16 06:12:05;;;;;;;3.53;0.30;;;15.10;99.90;;;;;;4911727;28;86618;-83
2022/10/16 06:14:31;;;;;;;3.80;0.40;;;15.30;99.90;;;;;;4910122;28;88480;-84
2022/10/16 06:16:57;;;;;;;4.40;0.35;;;15.30;99.90;;;;;;4905629;28;89063;-83
2022/10/16 06:19:23;;;;;;;2.90;0.20;;;15.10;99.90;;;;;;4904951;28;88262;-81
2022/10/16 06:21:48;;;;;;;2.05;0.40;;;15.00;99.90;;;;;;4909650;28;86664;-83
2022/10/16 06:24:14;;;;;;;1.42;0.20;;;14.70;99.90;;;;;;4917731;28;86557;-83
2022/10/16 06:26:40;;;;;;;1.85;0.30;;;14.50;99.90;;;;;;4913571;28;87223;-81
2022/10/16 06:29:06;;;;;;;3.95;0.40;;;14.40;99.90;;;;;;4912966;28;86769;-83
2022/10/16 06:31:33;;;;;;;1.75;0.30;;;14.40;99.90;;;;;;4908289;28;86838;-84
2022/10/16 06:33:59;;;;;;;2.47;0.77;;;14.50;99.90;;;;;;4910173;28;87077;-84
2022/10/16 06:36:25;;;;;;;2.13;0.20;;;14.80;99.90;;;;;;4910212;28;87341;-84
2022/10/16 06:38:52;;;;;;;1.88;0.15;;;15.10;99.90;;;;;;4916633;28;87657;-84
2022/10/16 06:41:20;;;;;;;4.13;0.10;;;15.30;99.40;;;;;;4914565;28;86338;-84
2022/10/16 06:43:46;;;;;;;1.45;0.20;;;15.50;98.00;;;;;;4913423;28;87057;-83
2022/10/16 06:46:14;;;;;;;3.95;0.30;;;15.60;97.60;;;;;;4906418;28;87674;-79
2022/10/16 06:48:39;;;;;;;2.78;0.40;;;15.80;96.40;;;;;;4909308;28;86887;-83
2022/10/16 06:51:22;;;;;;;3.72;0.50;;;15.90;97.80;;;;;;4909427;28;87026;-82
2022/10/16 06:53:54;;;;;;;3.08;0.63;;;16.10;98.00;;;;;;4912824;28;87331;-82
2022/10/16 06:56:20;;;;;;;4.03;1.13;;;16.20;98.60;;;;;;4914708;28;87254;-83
2022/10/16 06:58:47;;;;;;;2.85;1.02;;;16.30;97.80;;;;;;4915273;28;86439;-83
2022/10/16 07:01:14;;;;;;;6.70;0.90;;;16.40;97.40;;;;;;4914928;28;86345;-80
2022/10/16 07:03:42;;;;;;;3.70;0.30;;;16.90;97.30;;;;;;4910434;28;88296;-80
2022/10/16 07:06:10;;;;;;;1.63;0.30;;;17.30;94.10;;;;;;4915394;28;87204;-83
2022/10/16 07:08:39;;;;;;;1.45;0.43;;;17.60;94.00;;;;;;4918945;28;86733;-86
2022/10/16 07:11:07;;;;;;;3.15;0.52;;;18.90;93.90;;;;;;4928979;28;86808;-85
2022/10/16 07:13:41;;;;;;;1.42;0.45;;;21.00;89.40;;;;;;4926730;28;87094;-86
2022/10/16 07:16:08;;;;;;;3.45;0.25;;;21.50;83.20;;;;;;4921025;28;86371;-84
2022/10/16 07:18:35;;;;;;;1.85;0.28;;;21.10;76.20;;;;;;4918450;28;87292;-84
2022/10/16 07:21:05;;;;;;;1.20;0.20;;;20.80;71.30;;;;;;4915580;28;86317;-85
2022/10/16 07:23:30;;;;;;;2.40;0.50;;;20.40;74.00;;;;;;4920536;28;87296;-85
2022/10/16 07:25:56;;;;;;;0.75;0.30;;;21.20;72.30;;;;;;4917688;28;87500;-87
2022/10/16 07:28:21;;;;;;;1.08;0.43;;;22.10;71.90;;;;;;4921531;28;87303;-85
2022/10/16 07:30:55;;;;;;;2.33;0.40;;;22.40;66.50;;;;;;4918408;28;87000;-81
2022/10/16 07:33:21;;;;;;;1.90;0.43;;;22.80;65.20;;;;;;4921581;28;86793;-80
2022/10/16 07:35:52;;;;;;;2.80;0.40;;;23.70;65.20;;;;;;4920385;28;87006;-83
2022/10/16 07:38:19;;;;;;;3.05;0.30;;;24.10;61.10;;;;;;4921144;28;86885;-84
2022/10/16 07:40:45;;;;;;;2.45;0.60;;;26.60;61.20;;;;;;4897623;28;87115;-79
2022/10/16 07:43:10;;;;;;;1.60;0.73;;;29.90;57.50;;;;;;4914520;28;87115;-79
2022/10/16 07:45:36;;;;;;;1.77;0.32;;;33.10;48.50;;;;;;4923746;28;87388;-79
2022/10/16 07:48:02;;;;;;;2.10;0.43;;;34.10;46.00;;;;;;4919880;28;86336;-78
2022/10/16 07:50:28;;;;;;;1.50;0.73;;;33.80;45.20;;;;;;4920801;28;87479;-82
2022/10/16 07:52:53;;;;;;;1.98;0.82;;;34.40;43.00;;;;;;4906523;28;88248;-81
2022/10/16 07:55:19;;;;;;;2.88;0.75;;;32.80;43.10;;;;;;4914770;28;87865;-81
2022/10/16 07:57:44;;;;;;;1.90;0.63;;;30.50;46.00;;;;;;4910614;28;86580;-85
2022/10/16 08:00:13;;;;;;;1.88;0.50;;;27.30;49.10;;;;;;4913775;28;86236;-83
2022/10/16 08:02:40;;;;;;;1.83;0.52;;;25.30;53.70;;;;;;4911974;28;86684;-81
2022/10/16 08:05:06;;;;;;;0.98;0.52;;;24.30;55.60;;;;;;4917697;28;87159;-82
2022/10/16 08:07:32;;;;;;;2.58;0.52;;;23.80;57.00;;;;;;4916064;28;86640;-81
2022/10/16 08:09:58;;;;;;;1.48;0.52;;;23.30;57.40;;;;;;4919339;28;85978;-82
2022/10/16 08:12:26;;;;;;;1.88;0.50;;;22.90;58.90;;;;;;4912072;28;87335;-82
2022/10/16 08:14:52;;;;;;;4.57;1.00;;;22.40;64.20;;;;;;4906525;28;86865;-80
2022/10/16 08:17:18;;;;;;;5.55;1.23;;;22.40;68.60;;;;;;4907112;28;87545;-81
2022/10/16 08:19:47;;;;;;;3.25;0.63;;;22.10;73.10;;;;;;4909008;28;86617;-81
2022/10/16 08:22:13;;;;;;;;;;;22.50;73.00;;;;;;4913894;28;87268;-82
2022/10/16 08:24:39;;;;;;;2.05;0.70;;;23.70;70.80;;;;;;4920831;28;86287;-82
2022/10/16 08:27:05;;;;;;;3.65;0.75;;;25.40;67.10;;;;;;4919740;28;86676;-81
2022/10/16 08:29:30;;;;;;;2.88;1.50;;;26.20;62.60;;;;;;4911199;28;86943;-81
2022/10/16 08:31:56;;;;;;;3.47;0.82;;;26.00;61.80;;;;;;4916328;28;87128;-81
2022/10/16 08:34:22;;;;;;;2.63;0.88;;;25.40;63.00;;;;;;4916791;28;86944;-82
2022/10/16 08:36:47;;;;;;;2.38;0.73;;;24.50;64.40;;;;;;4901969;28;86882;-81
2022/10/16 08:39:13;;;;;;;5.78;0.40;;;23.30;64.30;;;;;;4919622;28;88505;-81
2022/10/16 08:41:50;;;;;;;1.20;0.50;;;24.10;60.60;;;;;;4916162;28;89723;-83
2022/10/16 08:44:19;;;;;;;2.92;0.85;;;28.20;56.80;;;;;;4915734;28;88238;-81
2022/10/16 08:47:20;;;;;;;4.03;1.35;;;32.70;47.00;;;;;;4918771;28;86174;-82
2022/10/16 08:50:10;;;;;;;3.47;2.03;;;36.40;41.10;;;;;;4914495;28;86969;-82
2022/10/16 08:52:40;;;;;;;4.93;1.95;;;39.90;40.00;;;;;;4909004;28;86934;-82
2022/10/16 08:55:06;;;;;;;3.15;2.28;;;41.80;38.00;;;;;;4919102;28;88679;-82
2022/10/16 08:57:32;;;;;;;4.45;3.17;;;42.40;36.50;;;;;;4920004;28;86252;-82
2022/10/16 09:00:12;;;;;;;3.75;3.13;;;42.30;35.00;;;;;;4918224;28;85983;-81
2022/10/16 09:02:43;;;;;;;2.13;1.92;;;41.90;35.70;;;;;;4918240;28;87116;-82
2022/10/16 09:05:32;;;;;;;3.30;2.83;;;42.50;31.90;;;;;;4919967;28;87022;-82
2022/10/16 09:08:09;;;;;;;3.47;3.15;;;43.40;32.80;;;;;;4910253;28;87669;-81
2022/10/16 09:10:40;;;;;;;3.65;2.55;;;45.40;30.80;;;;;;4920579;28;86930;-81
2022/10/16 09:13:19;;;;;;;2.67;2.47;;;44.30;29.50;;;;;;4914760;28;87778;-81
2022/10/16 09:15:56;;;;;;;3.67;3.38;;;42.60;31.00;;;;;;4917110;28;86890;-82
2022/10/16 09:18:35;;;;;;;3.65;3.35;;;43.90;29.20;;;;;;4911928;28;86744;-81
2022/10/16 09:21:18;;;;;;;4.55;4.15;;;43.70;30.00;;;;;;4914837;28;86657;-82
2022/10/16 09:23:43;;;;;;;4.65;4.22;;;43.90;31.10;;;;;;4913762;28;87259;-81
2022/10/16 09:26:15;;;;;;;9.60;4.30;;;43.20;33.00;;;;;;4917195;28;87130;-81
2022/10/16 09:28:41;;;;;;;6.22;4.45;;;44.20;33.10;;;;;;4918405;28;86805;-82
2022/10/16 09:31:18;;;;;;;4.28;3.88;;;45.00;32.10;;;;;;4917500;28;86191;-81
2022/10/16 09:33:48;;;;;;;5.38;3.95;;;46.40;30.30;;;;;;4914912;28;88188;-81
2022/10/16 09:36:14;;;;;;;4.32;3.92;;;46.90;30.30;;;;;;4919749;28;87901;-82
2022/10/16 09:38:40;;;;;;;5.00;4.60;;;47.20;30.30;;;;;;4916638;28;86805;-81
2022/10/16 09:41:19;;;;;;;5.03;4.53;;;47.20;30.60;;;;;;4915579;28;86619;-81
2022/10/16 09:44:00;;;;;;;3.92;3.58;;;45.60;31.80;;;;;;4917865;28;87070;-81
2022/10/16 09:46:27;;;;;;;5.60;5.07;;;45.80;32.00;;;;;;4912794;28;86874;-81
2022/10/16 09:48:59;;;;;;;5.40;4.72;;;45.80;32.50;;;;;;4915317;28;86318;-81
2022/10/16 09:51:35;;;;;;;5.47;4.97;;;43.80;33.90;;;;;;4917605;28;86225;-81
2022/10/16 09:54:10;;;;;;;7.32;4.20;;;43.50;33.40;;;;;;4916413;28;86741;-81
2022/10/16 09:56:39;;;;;;;8.30;4.40;;;44.30;32.80;;;;;;4914471;28;87110;-81
2022/10/16 09:59:19;;;;;;;5.57;3.95;;;44.80;33.10;;;;;;4916488;28;87683;-79
2022/10/16 10:01:52;;;;;;;;;;;42.80;34.70;;;;;;4915635;28;87015;-80
2022/10/16 10:04:20;;;;;;;7.85;3.65;;;42.60;34.90;;;;;;4911287;28;87297;-81
2022/10/16 10:06:47;;;;;;;6.22;3.78;;;43.70;33.70;;;;;;4917934;28;87133;-80
2022/10/16 10:09:21;;;;;;;3.58;3.28;;;43.80;33.40;;;;;;4914479;28;86756;-80
2022/10/16 10:11:58;;;;;;;7.45;4.88;;;43.20;34.00;;;;;;4913322;28;86815;-80
2022/10/16 10:14:30;;;;;;;6.35;3.80;;;43.90;32.70;;;;;;4917711;28;86549;-81
2022/10/16 10:17:11;;;;;;;2.85;2.55;;;43.20;33.40;;;;;;4911747;28;86967;-80
2022/10/16 10:19:45;;;;;;;5.30;4.70;;;42.80;34.00;;;;;;4910336;28;86206;-80
2022/10/16 10:22:42;;;;;;;4.35;3.17;;;40.60;35.00;;;;;;4914619;28;86311;-81
2022/10/16 10:25:08;;;;;;;3.80;2.80;;;37.60;39.20;;;;;;4918088;28;88813;-80
2022/10/16 10:27:46;;;;;;;4.28;3.60;;;35.20;41.10;;;;;;4915219;28;87809;-80
2022/10/16 10:30:17;;;;;;;4.78;2.58;;;33.00;44.70;;;;;;4916362;28;87058;-78
2022/10/16 10:33:02;;;;;;;3.20;2.22;;;30.00;51.10;;;;;;4914661;28;88087;-79
2022/10/16 10:35:34;;;;;;;4.05;1.90;;;28.30;53.20;;;;;;4917401;28;86740;-79
2022/10/16 10:38:15;;;;;;;5.70;1.30;;;27.50;56.60;;;;;;4920181;28;86963;-79
2022/10/16 10:40:56;;;;;;;6.22;1.45;;;26.40;57.00;;;;;;4919444;28;86290;-81
2022/10/16 10:43:42;;;;;;;6.40;1.48;;;25.50;60.00;;;;;;4926866;28;86006;-81
2022/10/16 10:46:29;;;;;;;4.30;1.02;;;24.70;63.10;;;;;;4901216;28;88282;-80
2022/10/16 10:49:16;;;;;;;2.95;1.20;;;24.10;65.80;;;;;;4918718;28;86840;-81
2022/10/16 10:52:26;;;;;;;3.40;1.20;;;24.20;67.20;;;;;;4904573;28;87416;-81
2022/10/16 10:55:15;;;;;;;2.15;1.08;;;23.80;65.00;;;;;;4837877;29;86790;-81
2022/10/16 10:58:06;;;;;;;3.08;1.00;;;24.00;66.30;;;;;;4837881;29;86695;-81
2022/10/16 11:00:41;;;;;;;7.88;1.88;;;23.90;68.60;;;;;;4901098;28;87407;-81
2022/10/16 11:03:38;;;;;;;2.00;0.95;;;23.70;68.40;;;;;;4910701;28;86693;-81
2022/10/16 11:06:12;;;;;;;4.43;1.00;;;23.50;69.60;;;;;;4914034;28;86927;-81
2022/10/16 11:08:47;;;;;;;5.13;1.10;;;23.10;71.80;;;;;;4926219;28;86425;-81
2022/10/16 11:11:26;;;;;;;4.32;0.90;;;22.90;73.80;;;;;;4899056;28;90368;-81
2022/10/16 11:14:11;;;;;;;6.47;1.50;;;22.70;73.20;;;;;;4920196;28;86955;-81
2022/10/16 11:16:45;;;;;;;2.88;1.00;;;22.70;75.20;;;;;;4919724;28;86626;-81
2022/10/16 11:19:38;;;;;;;3.30;0.80;;;22.50;75.90;;;;;;4918960;28;88231;-81
2022/10/16 11:22:11;;;;;;;5.35;1.25;;;22.50;76.10;;;;;;4916570;28;87784;-80
2022/10/16 11:25:00;;;;;;;5.05;1.45;;;22.40;75.20;;;;;;4923358;28;86939;-80
2022/10/16 11:27:38;;;;;;;2.78;1.10;;;22.30;76.50;;;;;;4916501;28;86307;-80
2022/10/16 11:30:20;;;;;;;3.25;1.85;;;22.10;76.90;;;;;;4921307;28;86882;-80
2022/10/16 11:32:54;;;;;;;5.50;1.08;;;22.10;76.20;;;;;;4912003;28;86869;-81
2022/10/16 11:35:53;;;;;;;2.63;0.95;;;22.00;76.50;;;;;;4918047;28;87099;-81
2022/10/16 11:38:26;;;;;;;3.88;1.15;;;21.90;76.70;;;;;;4916490;28;85758;-81
2022/10/16 11:40:57;;;;;;;2.25;0.80;;;22.20;76.00;;;;;;4912483;28;86523;-81
2022/10/16 11:43:35;;;;;;;3.38;0.90;;;22.40;75.30;;;;;;4914167;28;87859;-80
2022/10/16 11:46:24;;;;;;;4.97;0.93;;;22.30;75.20;;;;;;4909965;28;87239;-80
2022/10/16 11:49:06;;;;;;;2.08;1.17;;;22.30;75.90;;;;;;4923690;28;86879;-81
2022/10/16 11:51:35;;;;;;;4.82;1.38;;;22.10;77.00;;;;;;4917981;28;87208;-80
2022/10/16 11:54:15;;;;;;;3.38;1.85;;;22.10;76.50;;;;;;4917199;28;87004;-80
2022/10/16 11:56:43;;;;;;;3.33;1.13;;;21.90;76.30;;;;;;4918224;28;86837;-80
2022/10/16 11:59:17;;;;;;;1.85;0.65;;;22.00;75.40;;;;;;4923751;28;86589;-80
2022/10/16 12:02:26;;;;;;;4.60;1.45;;;21.90;77.10;;;;;;4917488;28;87100;-80
2022/10/16 12:05:09;;;;;;;3.03;1.05;;;22.10;76.10;;;;;;4918033;28;86986;-81
2022/10/16 12:07:48;;;;;;;2.53;0.88;;;22.20;76.20;;;;;;4921701;28;86381;-80
2022/10/16 12:10:28;;;;;;;2.42;1.15;;;22.20;76.20;;;;;;4919666;28;86363;-80
2022/10/16 12:12:56;;;;;;;4.38;1.23;;;21.90;76.80;;;;;;4901153;28;89701;-80
2022/10/16 12:15:27;;;;;;;2.38;0.52;;;22.00;76.50;;;;;;4918676;28;87922;-81
2022/10/16 12:17:54;;;;;;;1.80;0.75;;;22.00;75.90;;;;;;4917191;28;86263;-81
2022/10/16 12:20:27;;;;;;;3.53;0.70;;;22.00;75.40;;;;;;4920906;28;86423;-81
2022/10/16 12:22:55;;;;;;;1.98;0.85;;;22.10;75.50;;;;;;4923379;28;87440;-81
2022/10/16 12:25:32;;;;;;;2.13;0.82;;;22.30;75.70;;;;;;4912214;28;87449;-80
2022/10/16 12:28:02;;;;;;;3.03;0.80;;;22.30;74.80;;;;;;4919667;28;86204;-81
2022/10/16 12:30:31;;;;;;;4.07;0.80;;;22.20;75.30;;;;;;4918750;28;86178;-81
2022/10/16 12:33:06;;;;;;;1.98;0.82;;;22.10;76.60;;;;;;4920974;28;86598;-81
2022/10/16 12:35:42;;;;;;;1.90;0.80;;;22.00;76.30;;;;;;4914693;28;87021;-81
2022/10/16 12:38:27;;;;;;;2.80;0.88;;;22.00;76.70;;;;;;4917275;28;87862;-80
2022/10/16 12:41:12;;;;;;;3.28;0.93;;;21.70;76.40;;;;;;4917898;28;86405;-81
2022/10/16 12:43:42;;;;;;;1.92;1.00;;;21.70;77.30;;;;;;4916776;28;87111;-81
2022/10/16 12:46:08;;;;;;;2.25;0.63;;;21.70;76.70;;;;;;4914816;28;86555;-81
2022/10/16 12:48:35;;;;;;;3.78;0.60;;;21.60;76.70;;;;;;4919582;28;86818;-81
2022/10/16 12:51:22;;;;;;;5.05;0.98;;;21.50;76.90;;;;;;4919056;28;86268;-81
2022/10/16 12:54:04;;;;;;;4.82;0.93;;;21.50;78.30;;;;;;4910276;28;87722;-81
2022/10/16 12:56:54;;;;;;;3.95;0.90;;;21.50;77.30;;;;;;4919740;28;86321;-82
2022/10/16 13:00:00;;;;;;;2.45;0.60;;;21.50;77.90;;;;;;4920097;28;87229;-81
2022/10/16 13:02:38;;;;;;;3.17;0.73;;;21.50;76.00;;;;;;4905793;28;86817;-81
2022/10/16 13:05:03;;;;;;;3.20;0.70;;;21.60;77.40;;;;;;4913388;28;88879;-81
2022/10/16 13:08:00;;;;;;;3.33;0.93;;;21.60;77.70;;;;;;4912769;28;88416;-81
2022/10/16 13:10:51;;;;;;;1.67;0.70;;;21.60;77.10;;;;;;4891265;28;87480;-74
2022/10/16 13:13:51;;;;;;;3.47;0.75;;;21.60;85.10;;;;;;4903629;28;87411;-75
2022/10/16 13:17:00;;;;;;;5.78;0.98;;;21.80;77.20;;;;;;4910704;28;87332;-74
2022/10/16 13:19:52;;;;;;;3.65;0.93;;;21.90;76.50;;;;;;4914556;28;86383;-70
2022/10/16 13:22:46;;;;;;;2.70;0.82;;;21.70;77.70;;;;;;4895419;28;87225;-75
2022/10/16 13:25:21;;;;;;;1.80;0.65;;;21.60;78.20;;;;;;4907805;28;87413;-75
2022/10/16 13:28:03;;;;;;;4.05;0.88;;;21.60;80.40;;;;;;4922814;28;87151;-77
2022/10/16 13:30:39;;;;;;;2.88;0.75;;;21.80;77.20;;;;;;4915706;28;88756;-76
2022/10/16 13:33:19;;;;;;;3.75;0.82;;;21.70;77.50;;;;;;4914160;28;87735;-76
2022/10/16 13:35:56;;;;;;;2.85;0.93;;;21.80;78.30;;;;;;4917495;28;87140;-76
2022/10/16 13:38:31;;;;;;;2.58;0.70;;;21.80;77.60;;;;;;4919569;28;87724;-76
2022/10/16 13:41:01;;;;;;;5.68;0.82;;;21.80;77.30;;;;;;4916102;28;87777;-76
2022/10/16 13:43:38;;;;;;;2.28;0.60;;;21.90;78.40;;;;;;4913864;28;86408;-76
2022/10/16 13:46:14;;;;;;;2.17;0.63;;;21.90;78.20;;;;;;4906856;28;87050;-76
2022/10/16 13:48:40;;;;;;;2.33;0.68;;;21.90;77.70;;;;;;4919830;28;86695;-75
2022/10/16 13:51:11;;;;;;;2.70;0.55;;;22.10;77.80;;;;;;4908155;28;86374;-72
2022/10/16 13:53:37;;;;;;;3.35;0.82;;;22.10;78.10;;;;;;4915523;28;86336;-72
2022/10/16 13:56:07;;;;;;;3.15;0.88;;;22.30;81.30;;;;;;4910833;28;86661;-76
2022/10/16 13:58:33;;;;;;;1.70;0.60;;;22.50;79.40;;;;;;4910699;28;89142;-76
2022/10/16 14:01:00;;;;;;;3.28;0.90;;;22.40;77.50;;;;;;4913140;28;88192;-73
2022/10/16 14:03:28;;;;;;;4.55;0.52;;;22.20;79.10;;;;;;4912659;28;86312;-75
2022/10/16 14:05:57;;;;;;;4.32;0.80;;;22.20;78.60;;;;;;4909591;28;87122;-76
2022/10/16 14:08:26;;;;;;;1.42;0.52;;;22.20;78.90;;;;;;4910299;28;86805;-76
2022/10/16 14:10:55;;;;;;;6.45;0.90;;;22.10;78.90;;;;;;4904802;28;87006;-76
2022/10/16 14:13:42;;;;;;;3.33;0.82;;;22.10;78.10;;;;;;4906274;28;86797;-76
2022/10/16 14:16:11;;;;;;;4.13;0.70;;;22.10;80.60;;;;;;4908171;28;85687;-76
2022/10/16 14:18:39;;;;;;;3.63;0.65;;;22.10;79.60;;;;;;4908239;28;87259;-76
2022/10/16 14:21:14;;;;;;;1.65;0.50;;;22.20;78.90;;;;;;4896637;28;86425;-76
2022/10/16 14:23:41;;;;;;;1.63;0.60;;;22.10;78.20;;;;;;4915731;28;87984;-76
2022/10/16 14:26:10;;;;;;;1.60;0.50;;;22.10;77.60;;;;;;4913352;28;87084;-76
2022/10/16 14:28:37;;;;;;;4.57;0.70;;;22.30;76.90;;;;;;4911822;28;87447;-77
2022/10/16 14:31:20;;;;;;;4.60;1.05;;;22.30;75.20;;;;;;4914544;28;86903;-76
2022/10/16 14:33:45;;;;;;;;;;;22.20;75.00;;;;;;4914490;28;86597;-76
2022/10/16 14:36:13;;;;;;;3.63;0.68;;;22.30;74.80;;;;;;4915715;28;86373;-76
2022/10/16 14:38:40;;;;;;;1.52;0.63;;;22.40;74.20;;;;;;4917014;28;87209;-76
2022/10/16 14:41:07;;;;;;;2.35;0.45;;;22.50;72.90;;;;;;4918698;28;86229;-76
2022/10/16 14:43:43;;;;;;;1.13;0.38;;;22.50;71.40;;;;;;4911299;28;87349;-76
2022/10/16 14:46:21;;;;;;;3.38;0.68;;;22.50;71.10;;;;;;4916509;28;86853;-76
2022/10/16 14:48:49;;;;;;;1.25;0.30;;;22.60;70.90;;;;;;4906974;28;87923;-76
2022/10/16 14:51:19;;;;;;;2.25;0.43;;;22.70;70.40;;;;;;4907726;28;87081;-76
2022/10/16 14:53:45;;;;;;;2.30;0.50;;;22.60;70.20;;;;;;4924516;28;87066;-76
2022/10/16 14:56:20;;;;;;;2.15;0.30;;;22.60;70.50;;;;;;4910457;28;86903;-76
2022/10/16 14:58:47;;;;;;;0.70;0.30;;;22.60;69.70;;;;;;4908442;28;87138;-76
2022/10/16 15:01:12;;;;;;;2.47;0.35;;;22.50;69.00;;;;;;4907388;28;86774;-76
2022/10/16 15:03:39;;;;;;;0.80;0.32;;;22.50;68.10;;;;;;4907816;28;87871;-76
2022/10/16 15:06:13;;;;;;;3.20;0.35;;;22.50;68.40;;;;;;4911429;28;85515;-76
2022/10/16 15:08:39;;;;;;;3.70;0.40;;;22.50;68.40;;;;;;4916123;28;87339;-76
2022/10/16 15:11:09;;;;;;;1.45;0.45;;;22.50;67.80;;;;;;4911714;28;86973;-75
2022/10/16 15:13:35;;;;;;;5.60;0.80;;;22.50;68.10;;;;;;4909954;28;88523;-76
2022/10/16 15:16:01;;;;;;;2.22;0.95;;;22.40;70.20;;;;;;4914780;28;86820;-75
2022/10/16 15:18:27;;;;;;;5.05;1.13;;;22.50;74.60;;;;;;4915126;28;86900;-75
2022/10/16 15:20:52;;;;;;;3.55;1.25;;;22.50;79.80;;;;;;4914756;28;87505;-75
2022/10/16 15:23:21;;;;;;;5.68;0.65;;;22.20;80.40;;;;;;4910049;28;87312;-75
2022/10/16 15:25:56;;;;;;;5.88;0.73;;;22.00;82.80;;;;;;4915297;28;87082;-75
2022/10/16 15:28:23;;;;;;;2.53;0.73;;;21.70;81.60;;;;;;4912971;28;87203;-75
2022/10/16 15:30:51;;;;;;;2.58;0.93;;;21.60;82.10;;;;;;4914703;28;87375;-75
2022/10/16 15:33:23;;;;;;;7.35;0.93;;;21.60;81.70;;;;;;4906913;28;88074;-75
2022/10/16 15:35:51;;;;;;;3.15;0.90;;;21.60;82.10;;;;;;4912103;28;86301;-76
2022/10/16 15:38:19;;;;;;;4.47;0.93;;;21.40;82.70;;;;;;4910902;28;87727;-75
2022/10/16 15:40:46;;;;;;;3.08;0.68;;;21.40;82.50;;;;;;4918588;28;87703;-75
2022/10/16 15:43:11;;;;;;;1.95;0.85;;;21.30;82.80;;;;;;4912166;28;86785;-75
2022/10/16 15:45:37;;;;;;;3.55;0.85;;;21.20;83.70;;;;;;4913127;28;86997;-75
2022/10/16 15:48:03;;;;;;;2.78;1.00;;;21.00;84.10;;;;;;4910634;28;87197;-75
2022/10/16 15:50:30;;;;;;;4.05;1.27;;;20.90;83.50;;;;;;4906701;28;86723;-75
2022/10/16 15:52:56;;;;;;;4.30;0.75;;;21.00;82.30;;;;;;4919091;28;86679;-75
2022/10/16 15:55:22;;;;;;;2.85;1.08;;;20.90;81.90;;;;;;4918192;28;86473;-75
2022/10/16 15:57:48;;;;;;;4.28;1.10;;;20.90;81.40;;;;;;4918158;28;87201;-76
2022/10/16 16:00:17;;;;;;;2.92;0.90;;;20.70;81.50;;;;;;4913322;28;88271;-75
2022/10/16 16:02:49;;;;;;;9.10;4.75;;;20.40;82.10;;;;;;4904205;28;88237;-75
2022/10/16 16:05:15;;;;;;;10.43;4.93;;;20.10;83.20;;;;;;4916208;28;86274;-75
2022/10/16 16:07:41;;;;;;;7.82;2.13;;;19.90;83.40;;;;;;4914757;28;87188;-75
2022/10/16 16:10:09;;;;;;;3.58;1.50;;;19.80;84.20;;;;;;4916526;28;87641;-75
2022/10/16 16:12:35;;;;;;;4.10;0.63;;;19.50;85.00;;;;;;4913235;28;86980;-75
2022/10/16 16:15:01;;;;;;;7.13;1.13;;;19.30;84.80;;;;;;4910612;28;86857;-75
2022/10/16 16:17:26;;;;;;;4.70;0.73;;;19.20;84.30;;;;;;4915429;28;86828;-75
2022/10/16 16:19:52;;;;;;;2.95;1.15;;;19.30;83.90;;;;;;4919247;28;86154;-75
2022/10/16 16:22:18;;;;;;;9.10;1.50;;;19.30;84.60;;;;;;4911509;28;86677;-76
2022/10/16 16:24:43;;;;;;;3.28;1.00;;;19.20;85.90;;;;;;4914398;28;88242;-76
2022/10/16 16:27:09;;;;;;;6.63;1.00;;;19.00;86.10;;;;;;4912924;28;88190;-75
2022/10/16 16:29:35;;;;;;;2.08;0.80;;;18.70;87.70;;;;;;4910296;28;87068;-75
2022/10/16 16:32:01;;;;;;;3.55;1.50;;;18.70;86.90;;;;;;4912514;28;87004;-75
2022/10/16 16:34:28;;;;;;;6.32;2.90;;;18.60;88.50;;;;;;4910140;28;86709;-75
2022/10/16 16:36:55;;;;;;;6.18;3.20;;;18.50;90.00;;;;;;4913708;28;86575;-75
2022/10/16 16:39:21;;;;;;;5.32;2.40;;;18.30;90.50;;;;;;4910024;28;88589;-75
2022/10/16 16:41:47;;;;;;;5.53;1.92;;;18.20;90.30;;;;;;4917405;28;86798;-75
2022/10/16 16:44:14;;;;;;;4.65;1.40;;;18.30;90.30;;;;;;4905551;28;86082;-75
2022/10/16 16:46:42;;;;;;;3.28;1.30;;;18.20;90.20;;;;;;4910786;28;88239;-75
2022/10/16 16:49:10;;;;;;;4.65;1.73;;;18.20;90.20;;;;;;4903803;28;87693;-75
2022/10/16 16:51:36;;;;;;;5.60;1.60;;;18.10;90.90;;;;;;4913345;28;87301;-75
2022/10/16 16:54:02;;;;;;;6.28;1.88;;;17.90;91.50;;;;;;4915087;28;89385;-75
2022/10/16 16:56:28;;;;;;;4.65;1.45;;;17.90;91.10;;;;;;4912722;28;87251;-75
2022/10/16 16:58:56;;;;;;;3.67;1.10;;;17.70;92.10;;;;;;4915348;28;87362;-75
2022/10/16 17:01:23;;;;;;;3.05;1.35;;;17.50;93.00;;;;;;4910335;28;86714;-75
2022/10/16 17:03:53;;;;;;;4.00;1.42;;;17.40;93.30;;;;;;4915537;28;86476;-75
2022/10/16 17:06:21;;;;;;;6.75;1.42;;;17.50;93.10;;;;;;4911744;28;87109;-75
2022/10/16 17:08:47;;;;;;;6.25;1.50;;;17.60;93.20;;;;;;4909799;28;86301;-75
2022/10/16 17:11:19;;;;;;;3.38;1.38;;;17.40;93.90;;;;;;4909975;28;88400;-75